sensor_id;sensor_type;location;lat;lon;timestamp;temperature;humidity
997;DHT22;487;50.126;8.698;2022-10-31T05:01:51;13.80;1.00
997;DHT22;487;50.126;8.698;2022-10-31T05:04:19;13.70;1.00
997;DHT22;487;50.126;8.698;2022-10-31T05:06:47;13.60;1.00
997;DHT22;487;50.126;8.698;2022-10-31T05:09:15;13.60;1.00
997;DHT22;487;50.126;8.698;2022-10-31T05:11:43;13.60;1.00
997;DHT22;487;50.126;8.698;2022-10-31T05:14:10;13.60;1.00
997;DHT22;487;50.126;8.698;2022-10-31T05:16:39;13.50;1.00
997;DHT22;487;50.126;8.698;2022-10-31T05:21:36;13.50;1.00
997;DHT22;487;50.126;8.698;2022-10-31T05:26:32;13.40;1.00
997;DHT22;487;50.126;8.698;2022-10-31T05:31:28;13.40;1.00
997;DHT22;487;50.126;8.698;2022-10-31T05:33:56;13.40;1.00
997;DHT22;487;50.126;8.698;2022-10-31T05:36:25;13.40;1.00
997;DHT22;487;50.126;8.698;2022-10-31T05:38:53;13.40;1.00
997;DHT22;487;50.126;8.698;2022-10-31T05:41:21;13.40;1.00
997;DHT22;487;50.126;8.698;2022-10-31T05:43:49;13.40;1.00
997;DHT22;487;50.126;8.698;2022-10-31T05:46:16;13.40;1.00
997;DHT22;487;50.126;8.698;2022-10-31T05:51:12;13.40;1.00
997;DHT22;487;50.126;8.698;2022-10-31T05:53:42;13.40;1.00
997;DHT22;487;50.126;8.698;2022-10-31T06:08:31;13.40;1.00
997;DHT22;487;50.126;8.698;2022-10-31T06:13:28;13.30;1.00
997;DHT22;487;50.126;8.698;2022-10-31T06:20:52;13.20;1.00
997;DHT22;487;50.126;8.698;2022-10-31T06:28:18;13.10;1.00
997;DHT22;487;50.126;8.698;2022-10-31T06:30:46;13.20;1.00
997;DHT22;487;50.126;8.698;2022-10-31T06:35:45;13.30;1.00
997;DHT22;487;50.126;8.698;2022-10-31T06:38:13;13.30;1.00
997;DHT22;487;50.126;8.698;2022-10-31T06:40:41;13.40;1.00
997;DHT22;487;50.126;8.698;2022-10-31T06:43:09;13.40;1.00
997;DHT22;487;50.126;8.698;2022-10-31T06:55:41;13.70;1.00
997;DHT22;487;50.126;8.698;2022-10-31T06:58:10;13.70;1.00
997;DHT22;487;50.126;8.698;2022-10-31T07:03:11;13.70;1.00
997;DHT22;487;50.126;8.698;2022-10-31T07:05:40;13.70;1.00
997;DHT22;487;50.126;8.698;2022-10-31T07:08:10;13.70;1.00
997;DHT22;487;50.126;8.698;2022-10-31T07:10:39;13.80;1.00
997;DHT22;487;50.126;8.698;2022-10-31T07:13:11;13.70;1.00
997;DHT22;487;50.126;8.698;2022-10-31T07:15:41;13.80;1.00
997;DHT22;487;50.126;8.698;2022-10-31T07:18:11;13.80;1.00
997;DHT22;487;50.126;8.698;2022-10-31T07:23:12;13.90;1.00
997;DHT22;487;50.126;8.698;2022-10-31T07:25:40;13.90;1.00
997;DHT22;487;50.126;8.698;2022-10-31T07:33:08;14.00;1.00
997;DHT22;487;50.126;8.698;2022-10-31T07:48:10;14.20;1.00
997;DHT22;487;50.126;8.698;2022-10-31T07:53:08;14.30;1.00
997;DHT22;487;50.126;8.698;2022-10-31T07:55:36;14.30;1.00
997;DHT22;487;50.126;8.698;2022-10-31T07:58:05;14.40;1.00
997;DHT22;487;50.126;8.698;2022-10-31T08:00:35;14.50;1.00
997;DHT22;487;50.126;8.698;2022-10-31T08:05:34;14.60;1.00
997;DHT22;487;50.126;8.698;2022-10-31T08:08:03;14.60;1.00
997;DHT22;487;50.126;8.698;2022-10-31T08:10:32;14.70;1.00
997;DHT22;487;50.126;8.698;2022-10-31T08:13:01;14.70;1.00
997;DHT22;487;50.126;8.698;2022-10-31T08:15:30;14.70;1.00
997;DHT22;487;50.126;8.698;2022-10-31T08:17:58;14.70;1.00
997;DHT22;487;50.126;8.698;2022-10-31T08:23:00;14.80;1.00
997;DHT22;487;50.126;8.698;2022-10-31T08:25:30;14.80;1.00
997;DHT22;487;50.126;8.698;2022-10-31T08:28:04;14.80;1.00
997;DHT22;487;50.126;8.698;2022-10-31T08:30:34;14.80;1.00
997;DHT22;487;50.126;8.698;2022-10-31T08:33:04;14.80;1.00
997;DHT22;487;50.126;8.698;2022-10-31T08:35:33;14.80;1.00
997;DHT22;487;50.126;8.698;2022-10-31T08:38:02;14.90;1.00
997;DHT22;487;50.126;8.698;2022-10-31T08:45:33;14.90;1.00
997;DHT22;487;50.126;8.698;2022-10-31T08:48:03;14.90;1.00
997;DHT22;487;50.126;8.698;2022-10-31T08:50:33;14.90;1.00
997;DHT22;487;50.126;8.698;2022-10-31T08:53:03;14.90;1.00
997;DHT22;487;50.126;8.698;2022-10-31T08:55:33;14.90;1.00
997;DHT22;487;50.126;8.698;2022-10-31T08:58:03;14.90;1.00
997;DHT22;487;50.126;8.698;2022-10-31T09:00:32;15.00;1.00
997;DHT22;487;50.126;8.698;2022-10-31T09:03:02;14.90;1.00
997;DHT22;487;50.126;8.698;2022-10-31T09:05:30;14.90;1.00
997;DHT22;487;50.126;8.698;2022-10-31T09:07:59;14.90;1.00
997;DHT22;487;50.126;8.698;2022-10-31T09:10:30;15.00;1.00
997;DHT22;487;50.126;8.698;2022-10-31T09:13:00;14.90;1.00
997;DHT22;487;50.126;8.698;2022-10-31T09:15:30;15.00;1.00
997;DHT22;487;50.126;8.698;2022-10-31T09:20:27;15.00;1.00
997;DHT22;487;50.126;8.698;2022-10-31T09:22:56;15.00;1.00
997;DHT22;487;50.126;8.698;2022-10-31T09:25:25;15.00;1.00
997;DHT22;487;50.126;8.698;2022-10-31T09:27:56;15.00;1.00
997;DHT22;487;50.126;8.698;2022-10-31T09:30:27;15.00;1.00
997;DHT22;487;50.126;8.698;2022-10-31T09:32:55;14.90;1.00
997;DHT22;487;50.126;8.698;2022-10-31T09:37:55;15.20;1.00
997;DHT22;487;50.126;8.698;2022-10-31T09:40:29;15.20;1.00
997;DHT22;487;50.126;8.698;2022-10-31T09:43:06;16.00;1.00
997;DHT22;487;50.126;8.698;2022-10-31T09:45:40;15.30;1.00
997;DHT22;487;50.126;8.698;2022-10-31T09:48:21;15.30;1.00
997;DHT22;487;50.126;8.698;2022-10-31T09:50:55;15.40;1.00
997;DHT22;487;50.126;8.698;2022-10-31T09:53:30;15.50;1.00
997;DHT22;487;50.126;8.698;2022-10-31T09:56:02;15.50;1.00
997;DHT22;487;50.126;8.698;2022-10-31T09:58:37;15.60;1.00
997;DHT22;487;50.126;8.698;2022-10-31T10:01:09;15.60;1.00
997;DHT22;487;50.126;8.698;2022-10-31T10:03:45;15.70;1.00
997;DHT22;487;50.126;8.698;2022-10-31T10:06:15;15.80;1.00
997;DHT22;487;50.126;8.698;2022-10-31T10:08:44;15.80;1.00
997;DHT22;487;50.126;8.698;2022-10-31T10:11:29;15.90;1.00
997;DHT22;487;50.126;8.698;2022-10-31T10:14:14;15.90;1.00
997;DHT22;487;50.126;8.698;2022-10-31T10:16:57;16.00;1.00
997;DHT22;487;50.126;8.698;2022-10-31T10:19:45;16.10;1.00
997;DHT22;487;50.126;8.698;2022-10-31T10:22:21;16.10;1.00
997;DHT22;487;50.126;8.698;2022-10-31T10:25:04;16.20;1.00
997;DHT22;487;50.126;8.698;2022-10-31T10:27:42;16.20;1.00
997;DHT22;487;50.126;8.698;2022-10-31T10:30:17;16.30;1.00
997;DHT22;487;50.126;8.698;2022-10-31T10:32:47;16.30;1.00
997;DHT22;487;50.126;8.698;2022-10-31T10:35:22;16.40;1.00
997;DHT22;487;50.126;8.698;2022-10-31T10:37:55;16.40;1.00
997;DHT22;487;50.126;8.698;2022-10-31T10:40:27;16.40;1.00
997;DHT22;487;50.126;8.698;2022-10-31T10:43:00;16.50;1.00
997;DHT22;487;50.126;8.698;2022-10-31T10:45:57;16.60;1.00
997;DHT22;487;50.126;8.698;2022-10-31T10:48:48;16.60;1.00
997;DHT22;487;50.126;8.698;2022-10-31T10:51:21;16.60;1.00
997;DHT22;487;50.126;8.698;2022-10-31T10:54:39;16.60;1.00
997;DHT22;487;50.126;8.698;2022-10-31T10:57:22;16.70;1.00
997;DHT22;487;50.126;8.698;2022-10-31T10:59:51;16.60;1.00
997;DHT22;487;50.126;8.698;2022-10-31T11:02:23;16.70;1.00
997;DHT22;487;50.126;8.698;2022-10-31T11:04:53;16.70;1.00
997;DHT22;487;50.126;8.698;2022-10-31T11:07:22;16.80;1.00
997;DHT22;487;50.126;8.698;2022-10-31T11:09:49;16.80;1.00
997;DHT22;487;50.126;8.698;2022-10-31T11:12:20;16.80;1.00
997;DHT22;487;50.126;8.698;2022-10-31T11:14:51;16.90;1.00
997;DHT22;487;50.126;8.698;2022-10-31T11:17:26;17.00;1.00
997;DHT22;487;50.126;8.698;2022-10-31T11:20:06;17.00;1.00
997;DHT22;487;50.126;8.698;2022-10-31T11:22:47;17.10;1.00
997;DHT22;487;50.126;8.698;2022-10-31T11:25:20;17.10;1.00
997;DHT22;487;50.126;8.698;2022-10-31T11:27:59;17.20;1.00
997;DHT22;487;50.126;8.698;2022-10-31T11:30:27;17.30;1.00
997;DHT22;487;50.126;8.698;2022-10-31T11:32:58;17.30;1.00
997;DHT22;487;50.126;8.698;2022-10-31T11:35:27;17.50;1.00
997;DHT22;487;50.126;8.698;2022-10-31T11:37:58;17.50;1.00
997;DHT22;487;50.126;8.698;2022-10-31T11:40:29;17.50;1.00
997;DHT22;487;50.126;8.698;2022-10-31T11:42:58;17.50;1.00
997;DHT22;487;50.126;8.698;2022-10-31T11:45:31;17.60;1.00
997;DHT22;487;50.126;8.698;2022-10-31T11:48:02;17.60;1.00
997;DHT22;487;50.126;8.698;2022-10-31T11:50:48;17.60;1.00
997;DHT22;487;50.126;8.698;2022-10-31T11:53:18;17.70;1.00
997;DHT22;487;50.126;8.698;2022-10-31T11:55:48;17.80;1.00
997;DHT22;487;50.126;8.698;2022-10-31T11:58:26;17.80;1.00
997;DHT22;487;50.126;8.698;2022-10-31T12:00:55;17.90;1.00
997;DHT22;487;50.126;8.698;2022-10-31T12:03:34;17.80;1.00
997;DHT22;487;50.126;8.698;2022-10-31T12:06:09;17.90;1.00
997;DHT22;487;50.126;8.698;2022-10-31T12:08:40;17.90;1.00
997;DHT22;487;50.126;8.698;2022-10-31T12:11:17;17.90;1.00
997;DHT22;487;50.126;8.698;2022-10-31T12:13:58;17.90;1.00
997;DHT22;487;50.126;8.698;2022-10-31T12:16:35;18.00;1.00
997;DHT22;487;50.126;8.698;2022-10-31T12:19:11;18.00;1.00
997;DHT22;487;50.126;8.698;2022-10-31T12:21:53;18.00;1.00
997;DHT22;487;50.126;8.698;2022-10-31T12:24:34;18.10;1.00
997;DHT22;487;50.126;8.698;2022-10-31T12:27:14;18.10;1.00
997;DHT22;487;50.126;8.698;2022-10-31T12:29:57;18.20;1.00
997;DHT22;487;50.126;8.698;2022-10-31T12:32:37;18.20;1.00
997;DHT22;487;50.126;8.698;2022-10-31T12:35:24;18.30;1.00
997;DHT22;487;50.126;8.698;2022-10-31T12:38:14;18.40;1.00
997;DHT22;487;50.126;8.698;2022-10-31T12:40:59;18.50;1.00
997;DHT22;487;50.126;8.698;2022-10-31T12:43:36;18.60;1.00
997;DHT22;487;50.126;8.698;2022-10-31T12:46:12;18.70;1.00
997;DHT22;487;50.126;8.698;2022-10-31T12:48:58;18.70;1.00
997;DHT22;487;50.126;8.698;2022-10-31T12:51:38;18.70;1.00
997;DHT22;487;50.126;8.698;2022-10-31T12:54:40;18.80;1.00
997;DHT22;487;50.126;8.698;2022-10-31T12:57:22;18.90;1.00
997;DHT22;487;50.126;8.698;2022-10-31T12:59:55;19.00;1.00
997;DHT22;487;50.126;8.698;2022-10-31T13:02:29;18.90;1.00
997;DHT22;487;50.126;8.698;2022-10-31T13:05:01;19.00;1.00
997;DHT22;487;50.126;8.698;2022-10-31T13:07:36;19.00;1.00
997;DHT22;487;50.126;8.698;2022-10-31T13:10:10;19.00;1.00
997;DHT22;487;50.126;8.698;2022-10-31T13:12:42;18.90;1.00
997;DHT22;487;50.126;8.698;2022-10-31T13:15:16;18.90;1.00
997;DHT22;487;50.126;8.698;2022-10-31T13:17:47;18.90;1.00
997;DHT22;487;50.126;8.698;2022-10-31T13:20:21;19.70;1.00
997;DHT22;487;50.126;8.698;2022-10-31T13:22:55;18.90;1.00
997;DHT22;487;50.126;8.698;2022-10-31T13:25:27;18.80;1.00
997;DHT22;487;50.126;8.698;2022-10-31T13:27:59;18.80;1.00
997;DHT22;487;50.126;8.698;2022-10-31T13:30:31;18.80;1.00
997;DHT22;487;50.126;8.698;2022-10-31T13:33:02;18.80;1.00
997;DHT22;487;50.126;8.698;2022-10-31T13:35:37;18.80;1.00
997;DHT22;487;50.126;8.698;2022-10-31T13:38:20;18.80;1.00
997;DHT22;487;50.126;8.698;2022-10-31T13:40:53;18.80;1.00
997;DHT22;487;50.126;8.698;2022-10-31T13:43:33;18.80;1.00
997;DHT22;487;50.126;8.698;2022-10-31T13:46:23;18.80;1.00
997;DHT22;487;50.126;8.698;2022-10-31T13:48:54;18.80;1.00
997;DHT22;487;50.126;8.698;2022-10-31T13:51:27;18.80;1.00
997;DHT22;487;50.126;8.698;2022-10-31T13:54:04;18.70;1.00
997;DHT22;487;50.126;8.698;2022-10-31T13:56:34;18.80;1.00
997;DHT22;487;50.126;8.698;2022-10-31T13:59:15;18.80;1.00
997;DHT22;487;50.126;8.698;2022-10-31T14:01:51;18.80;1.00
997;DHT22;487;50.126;8.698;2022-10-31T14:04:21;18.80;1.00
997;DHT22;487;50.126;8.698;2022-10-31T14:07:04;18.80;1.00
997;DHT22;487;50.126;8.698;2022-10-31T14:09:36;18.70;1.00
997;DHT22;487;50.126;8.698;2022-10-31T14:12:07;18.80;1.00
997;DHT22;487;50.126;8.698;2022-10-31T14:14:43;18.80;1.00
997;DHT22;487;50.126;8.698;2022-10-31T14:17:22;18.70;1.00
997;DHT22;487;50.126;8.698;2022-10-31T14:20:03;18.70;1.00
997;DHT22;487;50.126;8.698;2022-10-31T14:22:31;18.70;1.00
997;DHT22;487;50.126;8.698;2022-10-31T14:25:29;18.70;1.00
997;DHT22;487;50.126;8.698;2022-10-31T14:27:57;19.10;1.00
997;DHT22;487;50.126;8.698;2022-10-31T14:30:28;18.60;1.00
997;DHT22;487;50.126;8.698;2022-10-31T14:32:59;18.60;1.00
997;DHT22;487;50.126;8.698;2022-10-31T14:35:43;18.60;1.00
997;DHT22;487;50.126;8.698;2022-10-31T14:38:26;18.60;1.00
997;DHT22;487;50.126;8.698;2022-10-31T14:41:22;18.50;1.00
997;DHT22;487;50.126;8.698;2022-10-31T14:44:21;18.50;1.00
997;DHT22;487;50.126;8.698;2022-10-31T14:46:56;18.60;1.00
997;DHT22;487;50.126;8.698;2022-10-31T14:49:41;18.70;1.00
997;DHT22;487;50.126;8.698;2022-10-31T14:52:13;18.70;1.00
997;DHT22;487;50.126;8.698;2022-10-31T14:54:45;18.80;1.00
997;DHT22;487;50.126;8.698;2022-10-31T14:57:19;18.90;1.00
997;DHT22;487;50.126;8.698;2022-10-31T14:59:49;19.00;1.00
997;DHT22;487;50.126;8.698;2022-10-31T15:02:20;19.00;1.00
997;DHT22;487;50.126;8.698;2022-10-31T15:04:52;19.00;1.00
997;DHT22;487;50.126;8.698;2022-10-31T15:07:23;19.10;1.00
997;DHT22;487;50.126;8.698;2022-10-31T15:09:58;19.10;1.00
997;DHT22;487;50.126;8.698;2022-10-31T15:12:30;19.10;1.00
997;DHT22;487;50.126;8.698;2022-10-31T15:15:11;19.00;1.00
997;DHT22;487;50.126;8.698;2022-10-31T15:17:43;19.00;1.00
997;DHT22;487;50.126;8.698;2022-10-31T15:22:40;19.00;1.00
997;DHT22;487;50.126;8.698;2022-10-31T15:25:17;18.90;1.00
997;DHT22;487;50.126;8.698;2022-10-31T15:27:48;18.90;1.00
997;DHT22;487;50.126;8.698;2022-10-31T15:30:18;18.80;1.00
997;DHT22;487;50.126;8.698;2022-10-31T15:32:48;18.80;1.00
997;DHT22;487;50.126;8.698;2022-10-31T15:35:26;18.60;1.00
997;DHT22;487;50.126;8.698;2022-10-31T15:37:56;18.60;1.00
997;DHT22;487;50.126;8.698;2022-10-31T15:40:26;18.60;1.00
997;DHT22;487;50.126;8.698;2022-10-31T15:42:57;18.50;1.00
997;DHT22;487;50.126;8.698;2022-10-31T15:47:57;18.40;1.00
997;DHT22;487;50.126;8.698;2022-10-31T15:50:46;18.40;1.00
997;DHT22;487;50.126;8.698;2022-10-31T15:53:17;18.30;1.00
997;DHT22;487;50.126;8.698;2022-10-31T15:55:49;18.30;1.00
997;DHT22;487;50.126;8.698;2022-10-31T15:58:19;18.20;1.00
997;DHT22;487;50.126;8.698;2022-10-31T16:00:57;18.20;1.00
997;DHT22;487;50.126;8.698;2022-10-31T16:03:28;18.10;1.00
997;DHT22;487;50.126;8.698;2022-10-31T16:05:57;18.10;1.00
997;DHT22;487;50.126;8.698;2022-10-31T16:08:32;18.10;1.00
997;DHT22;487;50.126;8.698;2022-10-31T16:11:14;18.00;1.00
997;DHT22;487;50.126;8.698;2022-10-31T16:13:56;18.00;1.00
997;DHT22;487;50.126;8.698;2022-10-31T16:16:25;18.00;1.00
997;DHT22;487;50.126;8.698;2022-10-31T16:19:04;18.00;1.00
997;DHT22;487;50.126;8.698;2022-10-31T16:21:35;17.90;1.00
997;DHT22;487;50.126;8.698;2022-10-31T16:24:15;17.90;1.00
997;DHT22;487;50.126;8.698;2022-10-31T16:26:47;17.80;1.00
997;DHT22;487;50.126;8.698;2022-10-31T16:29:26;17.70;1.00
997;DHT22;487;50.126;8.698;2022-10-31T16:31:54;17.60;1.00
997;DHT22;487;50.126;8.698;2022-10-31T16:34:23;17.60;1.00
997;DHT22;487;50.126;8.698;2022-10-31T16:36:53;17.50;1.00
997;DHT22;487;50.126;8.698;2022-10-31T16:39:20;17.40;1.00
997;DHT22;487;50.126;8.698;2022-10-31T16:41:50;17.40;1.00
997;DHT22;487;50.126;8.698;2022-10-31T16:44:22;17.30;1.00
997;DHT22;487;50.126;8.698;2022-10-31T16:47:08;17.20;1.00
997;DHT22;487;50.126;8.698;2022-10-31T16:49:47;16.40;1.00
997;DHT22;487;50.126;8.698;2022-10-31T16:52:16;17.10;1.00
997;DHT22;487;50.126;8.698;2022-10-31T16:54:44;17.10;1.00
997;DHT22;487;50.126;8.698;2022-10-31T16:57:14;17.10;1.00
997;DHT22;487;50.126;8.698;2022-10-31T16:59:44;17.20;1.00
997;DHT22;487;50.126;8.698;2022-10-31T17:02:15;17.20;1.00
997;DHT22;487;50.126;8.698;2022-10-31T17:04:44;17.20;1.00
997;DHT22;487;50.126;8.698;2022-10-31T17:07:16;17.20;1.00
997;DHT22;487;50.126;8.698;2022-10-31T17:09:44;17.20;1.00
997;DHT22;487;50.126;8.698;2022-10-31T17:12:15;17.20;1.00
997;DHT22;487;50.126;8.698;2022-10-31T17:14:50;17.30;1.00
997;DHT22;487;50.126;8.698;2022-10-31T17:17:20;17.30;1.00
997;DHT22;487;50.126;8.698;2022-10-31T17:19:47;17.30;1.00
997;DHT22;487;50.126;8.698;2022-10-31T17:24:44;17.30;1.00
997;DHT22;487;50.126;8.698;2022-10-31T17:27:11;17.40;1.00
997;DHT22;487;50.126;8.698;2022-10-31T17:29:39;17.40;1.00
997;DHT22;487;50.126;8.698;2022-10-31T17:32:07;17.40;1.00
997;DHT22;487;50.126;8.698;2022-10-31T17:34:36;17.30;1.00
997;DHT22;487;50.126;8.698;2022-10-31T17:37:04;17.30;1.00
997;DHT22;487;50.126;8.698;2022-10-31T17:39:33;17.30;1.00
997;DHT22;487;50.126;8.698;2022-10-31T17:42:01;16.90;1.00
997;DHT22;487;50.126;8.698;2022-10-31T17:44:29;17.30;1.00
997;DHT22;487;50.126;8.698;2022-10-31T17:46:57;17.30;1.00
997;DHT22;487;50.126;8.698;2022-10-31T17:49:24;17.30;1.00
997;DHT22;487;50.126;8.698;2022-10-31T17:51:54;17.30;1.00
997;DHT22;487;50.126;8.698;2022-10-31T17:54:22;17.30;1.00
997;DHT22;487;50.126;8.698;2022-10-31T17:56:49;17.20;1.00
997;DHT22;487;50.126;8.698;2022-10-31T17:59:18;17.20;1.00
997;DHT22;487;50.126;8.698;2022-10-31T18:01:46;17.20;1.00
997;DHT22;487;50.126;8.698;2022-10-31T18:04:14;17.20;1.00
997;DHT22;487;50.126;8.698;2022-10-31T18:06:42;17.10;1.00
997;DHT22;487;50.126;8.698;2022-10-31T18:09:12;17.10;1.00
997;DHT22;487;50.126;8.698;2022-10-31T18:11:40;17.10;1.00
997;DHT22;487;50.126;8.698;2022-10-31T18:14:09;17.10;1.00
997;DHT22;487;50.126;8.698;2022-10-31T18:16:37;17.00;1.00
997;DHT22;487;50.126;8.698;2022-10-31T18:19:04;17.00;1.00
997;DHT22;487;50.126;8.698;2022-10-31T18:21:33;17.00;1.00
997;DHT22;487;50.126;8.698;2022-10-31T18:24:00;16.90;1.00
997;DHT22;487;50.126;8.698;2022-10-31T18:26:31;16.90;1.00
997;DHT22;487;50.126;8.698;2022-10-31T18:28:59;16.80;1.00
997;DHT22;487;50.126;8.698;2022-10-31T18:31:28;16.80;1.00
997;DHT22;487;50.126;8.698;2022-10-31T18:33:56;16.80;1.00
997;DHT22;487;50.126;8.698;2022-10-31T18:36:24;16.80;1.00
997;DHT22;487;50.126;8.698;2022-10-31T18:38:52;16.70;1.00
997;DHT22;487;50.126;8.698;2022-10-31T18:41:20;16.70;1.00
997;DHT22;487;50.126;8.698;2022-10-31T18:43:49;16.80;1.00
997;DHT22;487;50.126;8.698;2022-10-31T18:46:19;16.70;1.00
997;DHT22;487;50.126;8.698;2022-10-31T18:48:50;16.70;1.00
997;DHT22;487;50.126;8.698;2022-10-31T18:51:18;16.80;1.00
997;DHT22;487;50.126;8.698;2022-10-31T18:53:50;16.70;1.00
997;DHT22;487;50.126;8.698;2022-10-31T18:56:19;16.70;1.00
997;DHT22;487;50.126;8.698;2022-10-31T18:58:47;16.60;1.00
997;DHT22;487;50.126;8.698;2022-10-31T19:01:17;16.60;1.00
997;DHT22;487;50.126;8.698;2022-10-31T19:03:51;16.60;1.00
997;DHT22;487;50.126;8.698;2022-10-31T19:06:19;16.50;1.00
997;DHT22;487;50.126;8.698;2022-10-31T19:08:47;16.50;1.00
997;DHT22;487;50.126;8.698;2022-10-31T19:11:15;16.50;1.00
997;DHT22;487;50.126;8.698;2022-10-31T19:13:42;16.40;1.00
997;DHT22;487;50.126;8.698;2022-10-31T19:16:12;16.40;1.00
997;DHT22;487;50.126;8.698;2022-10-31T19:18:42;16.40;1.00
997;DHT22;487;50.126;8.698;2022-10-31T19:21:12;16.40;1.00
997;DHT22;487;50.126;8.698;2022-10-31T19:23:41;16.40;1.00
997;DHT22;487;50.126;8.698;2022-10-31T19:26:09;16.30;1.00
997;DHT22;487;50.126;8.698;2022-10-31T19:28:38;16.30;1.00
997;DHT22;487;50.126;8.698;2022-10-31T19:31:07;16.30;1.00
997;DHT22;487;50.126;8.698;2022-10-31T19:33:35;16.30;1.00
997;DHT22;487;50.126;8.698;2022-10-31T19:36:06;16.40;1.00
997;DHT22;487;50.126;8.698;2022-10-31T19:38:36;16.30;1.00
997;DHT22;487;50.126;8.698;2022-10-31T19:41:05;16.30;1.00
997;DHT22;487;50.126;8.698;2022-10-31T19:43:34;16.30;1.00
997;DHT22;487;50.126;8.698;2022-10-31T19:46:03;16.30;1.00
997;DHT22;487;50.126;8.698;2022-10-31T19:48:34;16.20;1.00
997;DHT22;487;50.126;8.698;2022-10-31T19:51:06;16.20;1.00
997;DHT22;487;50.126;8.698;2022-10-31T19:53:35;16.20;1.00
997;DHT22;487;50.126;8.698;2022-10-31T19:56:03;16.10;1.00
997;DHT22;487;50.126;8.698;2022-10-31T19:58:31;16.10;1.00
997;DHT22;487;50.126;8.698;2022-10-31T20:01:05;16.10;1.00
997;DHT22;487;50.126;8.698;2022-10-31T20:03:33;16.10;1.00
997;DHT22;487;50.126;8.698;2022-10-31T20:06:06;16.10;1.00
997;DHT22;487;50.126;8.698;2022-10-31T20:08:38;16.00;1.00
997;DHT22;487;50.126;8.698;2022-10-31T20:11:06;16.00;1.00
997;DHT22;487;50.126;8.698;2022-10-31T20:13:35;16.00;1.00
997;DHT22;487;50.126;8.698;2022-10-31T20:16:06;16.00;1.00
997;DHT22;487;50.126;8.698;2022-10-31T20:18:34;16.00;1.00
997;DHT22;487;50.126;8.698;2022-10-31T20:21:05;16.00;1.00
997;DHT22;487;50.126;8.698;2022-10-31T20:23:35;16.00;1.00
997;DHT22;487;50.126;8.698;2022-10-31T20:26:04;16.00;1.00
997;DHT22;487;50.126;8.698;2022-10-31T20:28:32;16.00;1.00
997;DHT22;487;50.126;8.698;2022-10-31T20:31:10;16.00;1.00
997;DHT22;487;50.126;8.698;2022-10-31T20:33:38;16.00;1.00
997;DHT22;487;50.126;8.698;2022-10-31T20:36:07;16.00;1.00
997;DHT22;487;50.126;8.698;2022-10-31T20:38:38;15.90;1.00
997;DHT22;487;50.126;8.698;2022-10-31T20:41:08;15.90;1.00
997;DHT22;487;50.126;8.698;2022-10-31T20:43:37;15.90;1.00
997;DHT22;487;50.126;8.698;2022-10-31T20:46:06;15.90;1.00
997;DHT22;487;50.126;8.698;2022-10-31T20:48:35;15.90;1.00
997;DHT22;487;50.126;8.698;2022-10-31T20:51:05;15.90;1.00
997;DHT22;487;50.126;8.698;2022-10-31T20:53:33;15.80;1.00
997;DHT22;487;50.126;8.698;2022-10-31T20:56:04;15.80;1.00
997;DHT22;487;50.126;8.698;2022-10-31T20:58:33;15.80;1.00
997;DHT22;487;50.126;8.698;2022-10-31T21:01:02;15.90;1.00
997;DHT22;487;50.126;8.698;2022-10-31T21:03:30;15.80;1.00
997;DHT22;487;50.126;8.698;2022-10-31T21:05:59;15.80;1.00
997;DHT22;487;50.126;8.698;2022-10-31T21:08:28;15.80;1.00
997;DHT22;487;50.126;8.698;2022-10-31T21:10:57;15.80;1.00
997;DHT22;487;50.126;8.698;2022-10-31T21:13:26;15.80;1.00
997;DHT22;487;50.126;8.698;2022-10-31T21:15:59;15.80;1.00
997;DHT22;487;50.126;8.698;2022-10-31T21:18:27;15.80;1.00
997;DHT22;487;50.126;8.698;2022-10-31T21:20:55;15.80;1.00
997;DHT22;487;50.126;8.698;2022-10-31T21:23:23;15.70;1.00
997;DHT22;487;50.126;8.698;2022-10-31T21:25:51;15.70;1.00
997;DHT22;487;50.126;8.698;2022-10-31T21:28:19;15.60;1.00
997;DHT22;487;50.126;8.698;2022-10-31T21:30:49;15.60;1.00
997;DHT22;487;50.126;8.698;2022-10-31T21:33:17;15.50;1.00
997;DHT22;487;50.126;8.698;2022-10-31T21:35:49;15.50;1.00
997;DHT22;487;50.126;8.698;2022-10-31T21:38:17;15.50;1.00
997;DHT22;487;50.126;8.698;2022-10-31T21:40:45;15.50;1.00
997;DHT22;487;50.126;8.698;2022-10-31T21:43:13;15.50;1.00
997;DHT22;487;50.126;8.698;2022-10-31T21:45:41;15.40;1.00
997;DHT22;487;50.126;8.698;2022-10-31T21:48:10;15.40;1.00
997;DHT22;487;50.126;8.698;2022-10-31T21:50:37;15.40;1.00
997;DHT22;487;50.126;8.698;2022-10-31T21:53:05;15.40;1.00
997;DHT22;487;50.126;8.698;2022-10-31T21:55:47;15.30;1.00
997;DHT22;487;50.126;8.698;2022-10-31T21:58:15;15.30;1.00
997;DHT22;487;50.126;8.698;2022-10-31T22:00:43;15.30;1.00
997;DHT22;487;50.126;8.698;2022-10-31T22:03:12;15.20;1.00
997;DHT22;487;50.126;8.698;2022-10-31T22:05:40;15.20;1.00
997;DHT22;487;50.126;8.698;2022-10-31T22:08:07;15.20;1.00
997;DHT22;487;50.126;8.698;2022-10-31T22:10:35;15.20;1.00
997;DHT22;487;50.126;8.698;2022-10-31T22:13:03;15.20;1.00
997;DHT22;487;50.126;8.698;2022-10-31T22:15:31;15.00;1.00
997;DHT22;487;50.126;8.698;2022-10-31T22:17:59;15.00;1.00
997;DHT22;487;50.126;8.698;2022-10-31T22:20:28;15.00;1.00
997;DHT22;487;50.126;8.698;2022-10-31T22:22:57;15.00;1.00
997;DHT22;487;50.126;8.698;2022-10-31T22:25:24;14.90;1.00
997;DHT22;487;50.126;8.698;2022-10-31T22:27:52;14.90;1.00
997;DHT22;487;50.126;8.698;2022-10-31T22:30:20;14.90;1.00
997;DHT22;487;50.126;8.698;2022-10-31T22:32:48;14.90;1.00
997;DHT22;487;50.126;8.698;2022-10-31T22:35:16;14.90;1.00
997;DHT22;487;50.126;8.698;2022-10-31T22:37:45;14.90;1.00
997;DHT22;487;50.126;8.698;2022-10-31T22:40:13;14.80;1.00
997;DHT22;487;50.126;8.698;2022-10-31T22:42:41;14.90;1.00
997;DHT22;487;50.126;8.698;2022-10-31T22:45:09;14.80;1.00
997;DHT22;487;50.126;8.698;2022-10-31T22:47:39;14.80;1.00
997;DHT22;487;50.126;8.698;2022-10-31T22:50:11;14.90;1.00
997;DHT22;487;50.126;8.698;2022-10-31T22:52:39;14.90;1.00
997;DHT22;487;50.126;8.698;2022-10-31T22:55:09;14.80;1.00
997;DHT22;487;50.126;8.698;2022-10-31T22:57:36;14.90;1.00
997;DHT22;487;50.126;8.698;2022-10-31T23:00:05;14.00;1.00
997;DHT22;487;50.126;8.698;2022-10-31T23:02:34;14.90;1.00
997;DHT22;487;50.126;8.698;2022-10-31T23:05:02;14.90;1.00
997;DHT22;487;50.126;8.698;2022-10-31T23:07:30;14.90;1.00
997;DHT22;487;50.126;8.698;2022-10-31T23:09:58;14.90;1.00
997;DHT22;487;50.126;8.698;2022-10-31T23:12:29;14.90;1.00
997;DHT22;487;50.126;8.698;2022-10-31T23:15:14;14.90;1.00
997;DHT22;487;50.126;8.698;2022-10-31T23:17:42;14.90;1.00
997;DHT22;487;50.126;8.698;2022-10-31T23:20:10;14.90;1.00
997;DHT22;487;50.126;8.698;2022-10-31T23:22:38;14.70;1.00
997;DHT22;487;50.126;8.698;2022-10-31T23:25:07;17.40;1.00
997;DHT22;487;50.126;8.698;2022-10-31T23:27:36;14.80;1.00
997;DHT22;487;50.126;8.698;2022-10-31T23:30:04;14.90;1.00
997;DHT22;487;50.126;8.698;2022-10-31T23:32:34;14.80;1.00
997;DHT22;487;50.126;8.698;2022-10-31T23:35:04;14.90;1.00
997;DHT22;487;50.126;8.698;2022-10-31T23:37:35;14.80;1.00
997;DHT22;487;50.126;8.698;2022-10-31T23:40:05;14.90;1.00
997;DHT22;487;50.126;8.698;2022-10-31T23:42:34;14.90;1.00
997;DHT22;487;50.126;8.698;2022-10-31T23:45:03;14.90;1.00
997;DHT22;487;50.126;8.698;2022-10-31T23:47:31;14.90;1.00
997;DHT22;487;50.126;8.698;2022-10-31T23:49:59;13.50;1.00
997;DHT22;487;50.126;8.698;2022-10-31T23:52:27;15.00;1.00
997;DHT22;487;50.126;8.698;2022-10-31T23:54:55;15.00;1.00
997;DHT22;487;50.126;8.698;2022-10-31T23:57:25;14.90;1.00
